sensor_id;sensor_type;location;lat;lon;timestamp;pressure;altitude;pressure_sealevel;temperature;humidity
78431;BME280;67727;50.236;22.452;2023-05-06T00:02:13;100163.07;;;8.50;66.31
78431;BME280;67727;50.236;22.452;2023-05-06T00:04:39;100163.32;;;8.47;67.05
78431;BME280;67727;50.236;22.452;2023-05-06T00:07:06;100162.86;;;8.47;67.33
78431;BME280;67727;50.236;22.452;2023-05-06T00:09:34;100166.59;;;8.46;67.58
78431;BME280;67727;50.236;22.452;2023-05-06T00:12:00;100162.30;;;8.47;67.87
78431;BME280;67727;50.236;22.452;2023-05-06T00:14:27;100161.52;;;8.45;67.97
78431;BME280;67727;50.236;22.452;2023-05-06T00:16:54;100158.39;;;8.43;67.96
78431;BME280;67727;50.236;22.452;2023-05-06T00:19:21;100159.86;;;8.41;67.87
78431;BME280;67727;50.236;22.452;2023-05-06T00:21:48;100156.46;;;8.38;68.01
78431;BME280;67727;50.236;22.452;2023-05-06T00:24:15;100160.10;;;8.34;68.18
78431;BME280;67727;50.236;22.452;2023-05-06T00:26:41;100160.25;;;8.31;68.55
78431;BME280;67727;50.236;22.452;2023-05-06T00:29:08;100153.88;;;8.26;68.51
78431;BME280;67727;50.236;22.452;2023-05-06T00:31:35;100156.91;;;8.22;69.09
78431;BME280;67727;50.236;22.452;2023-05-06T00:34:02;100154.93;;;8.19;69.64
78431;BME280;67727;50.236;22.452;2023-05-06T00:36:28;100159.91;;;8.16;68.98
78431;BME280;67727;50.236;22.452;2023-05-06T00:38:55;100156.48;;;8.16;68.90
78431;BME280;67727;50.236;22.452;2023-05-06T00:41:22;100157.73;;;8.17;69.05
78431;BME280;67727;50.236;22.452;2023-05-06T00:43:49;100155.55;;;8.16;69.42
78431;BME280;67727;50.236;22.452;2023-05-06T00:46:16;100156.14;;;8.14;69.19
78431;BME280;67727;50.236;22.452;2023-05-06T00:48:43;100154.48;;;8.11;69.13
78431;BME280;67727;50.236;22.452;2023-05-06T00:51:11;100158.84;;;8.08;69.34
78431;BME280;67727;50.236;22.452;2023-05-06T00:53:38;100162.79;;;8.04;69.15
78431;BME280;67727;50.236;22.452;2023-05-06T00:56:06;100163.28;;;7.98;68.79
78431;BME280;67727;50.236;22.452;2023-05-06T00:58:34;100164.23;;;7.94;69.35
78431;BME280;67727;50.236;22.452;2023-05-06T01:01:00;100163.11;;;7.87;69.56
78431;BME280;67727;50.236;22.452;2023-05-06T01:03:28;100162.13;;;7.83;69.81
78431;BME280;67727;50.236;22.452;2023-05-06T01:08:41;100167.34;;;7.78;69.97
78431;BME280;67727;50.236;22.452;2023-05-06T01:11:41;100170.90;;;7.77;69.57
78431;BME280;67727;50.236;22.452;2023-05-06T01:16:47;100172.83;;;7.76;69.73
78431;BME280;67727;50.236;22.452;2023-05-06T01:19:36;100174.90;;;7.71;70.13
78431;BME280;67727;50.236;22.452;2023-05-06T01:22:05;100180.46;;;7.66;70.28
78431;BME280;67727;50.236;22.452;2023-05-06T01:24:37;100183.39;;;7.61;69.97
78431;BME280;67727;50.236;22.452;2023-05-06T01:27:05;100182.73;;;7.55;70.32
78431;BME280;67727;50.236;22.452;2023-05-06T01:29:34;100180.71;;;7.51;70.58
78431;BME280;67727;50.236;22.452;2023-05-06T01:35:02;100179.48;;;7.45;70.76
78431;BME280;67727;50.236;22.452;2023-05-06T01:37:50;100184.64;;;7.43;71.03
78431;BME280;67727;50.236;22.452;2023-05-06T01:40:18;100187.44;;;7.43;70.82
78431;BME280;67727;50.236;22.452;2023-05-06T01:42:47;100180.14;;;7.42;71.15
78431;BME280;67727;50.236;22.452;2023-05-06T01:45:17;100180.34;;;7.40;71.46
78431;BME280;67727;50.236;22.452;2023-05-06T01:47:45;100178.73;;;7.38;71.24
78431;BME280;67727;50.236;22.452;2023-05-06T01:50:13;100180.35;;;7.35;71.30
78431;BME280;67727;50.236;22.452;2023-05-06T01:52:40;100177.90;;;7.30;71.54
78431;BME280;67727;50.236;22.452;2023-05-06T01:55:07;100174.65;;;7.23;71.90
78431;BME280;67727;50.236;22.452;2023-05-06T01:57:34;100178.16;;;7.16;72.15
78431;BME280;67727;50.236;22.452;2023-05-06T02:00:01;100172.27;;;7.11;72.28
78431;BME280;67727;50.236;22.452;2023-05-06T02:02:28;100175.13;;;7.09;72.19
78431;BME280;67727;50.236;22.452;2023-05-06T02:04:55;100171.94;;;7.09;72.38
78431;BME280;67727;50.236;22.452;2023-05-06T02:07:22;100170.66;;;7.09;72.67
78431;BME280;67727;50.236;22.452;2023-05-06T02:09:48;100159.65;;;7.09;72.82
78431;BME280;67727;50.236;22.452;2023-05-06T02:12:15;100154.90;;;7.09;73.22
78431;BME280;67727;50.236;22.452;2023-05-06T02:14:42;100157.46;;;7.08;73.37
78431;BME280;67727;50.236;22.452;2023-05-06T02:17:09;100159.54;;;7.06;73.47
78431;BME280;67727;50.236;22.452;2023-05-06T02:19:36;100162.04;;;7.04;73.52
78431;BME280;67727;50.236;22.452;2023-05-06T02:22:03;100157.67;;;7.00;73.68
78431;BME280;67727;50.236;22.452;2023-05-06T02:24:29;100155.88;;;6.98;74.06
78431;BME280;67727;50.236;22.452;2023-05-06T02:26:56;100153.70;;;6.99;73.75
78431;BME280;67727;50.236;22.452;2023-05-06T02:29:23;100150.45;;;7.02;73.56
78431;BME280;67727;50.236;22.452;2023-05-06T02:31:50;100147.60;;;7.06;73.56
78431;BME280;67727;50.236;22.452;2023-05-06T02:34:17;100146.43;;;7.09;72.75
78431;BME280;67727;50.236;22.452;2023-05-06T02:36:43;100145.97;;;7.12;72.62
78431;BME280;67727;50.236;22.452;2023-05-06T02:39:10;100150.92;;;7.12;72.59
78431;BME280;67727;50.236;22.452;2023-05-06T02:41:37;100146.68;;;7.10;72.80
78431;BME280;67727;50.236;22.452;2023-05-06T02:44:04;100148.83;;;7.08;73.28
78431;BME280;67727;50.236;22.452;2023-05-06T02:46:31;100144.20;;;7.05;73.62
78431;BME280;67727;50.236;22.452;2023-05-06T02:48:59;100139.58;;;7.02;73.37
78431;BME280;67727;50.236;22.452;2023-05-06T02:51:26;100132.50;;;7.02;73.30
78431;BME280;67727;50.236;22.452;2023-05-06T02:53:52;100135.25;;;7.03;73.58
78431;BME280;67727;50.236;22.452;2023-05-06T02:56:19;100130.25;;;7.04;73.48
78431;BME280;67727;50.236;22.452;2023-05-06T02:58:46;100129.16;;;7.04;73.33
78431;BME280;67727;50.236;22.452;2023-05-06T03:01:13;100123.84;;;7.03;73.78
78431;BME280;67727;50.236;22.452;2023-05-06T03:03:40;100125.63;;;6.99;74.25
78431;BME280;67727;50.236;22.452;2023-05-06T03:06:07;100128.83;;;6.97;74.23
78431;BME280;67727;50.236;22.452;2023-05-06T03:08:34;100131.73;;;6.92;74.37
78431;BME280;67727;50.236;22.452;2023-05-06T03:11:01;100141.77;;;6.88;74.59
78431;BME280;67727;50.236;22.452;2023-05-06T03:13:27;100140.80;;;6.87;74.66
78431;BME280;67727;50.236;22.452;2023-05-06T03:15:54;100140.32;;;6.86;74.74
78431;BME280;67727;50.236;22.452;2023-05-06T03:18:21;100140.27;;;6.87;74.83
78431;BME280;67727;50.236;22.452;2023-05-06T03:20:48;100141.25;;;6.88;75.00
78431;BME280;67727;50.236;22.452;2023-05-06T03:23:15;100139.02;;;6.88;74.69
78431;BME280;67727;50.236;22.452;2023-05-06T03:25:42;100140.34;;;6.88;74.82
78431;BME280;67727;50.236;22.452;2023-05-06T03:28:10;100141.08;;;6.88;74.79
78431;BME280;67727;50.236;22.452;2023-05-06T03:30:37;100140.67;;;6.86;74.82
78431;BME280;67727;50.236;22.452;2023-05-06T03:33:03;100142.67;;;6.86;74.80
78431;BME280;67727;50.236;22.452;2023-05-06T03:35:30;100142.98;;;6.86;75.08
78431;BME280;67727;50.236;22.452;2023-05-06T03:37:57;100144.97;;;6.88;74.96
78431;BME280;67727;50.236;22.452;2023-05-06T03:40:24;100140.71;;;6.90;75.06
78431;BME280;67727;50.236;22.452;2023-05-06T03:42:51;100141.62;;;6.93;75.02
78431;BME280;67727;50.236;22.452;2023-05-06T03:45:18;100149.11;;;6.96;74.81
78431;BME280;67727;50.236;22.452;2023-05-06T03:47:45;100153.09;;;7.00;74.65
78431;BME280;67727;50.236;22.452;2023-05-06T03:50:11;100153.20;;;7.01;74.65
78431;BME280;67727;50.236;22.452;2023-05-06T03:52:39;100149.85;;;7.01;74.75
78431;BME280;67727;50.236;22.452;2023-05-06T03:55:06;100154.73;;;7.01;74.30
78431;BME280;67727;50.236;22.452;2023-05-06T03:57:33;100152.88;;;7.04;74.66
78431;BME280;67727;50.236;22.452;2023-05-06T03:59:59;100155.10;;;7.09;74.74
78431;BME280;67727;50.236;22.452;2023-05-06T04:02:26;100149.05;;;7.15;75.03
78431;BME280;67727;50.236;22.452;2023-05-06T04:04:54;100149.39;;;7.25;74.79
78431;BME280;67727;50.236;22.452;2023-05-06T04:07:21;100149.09;;;7.37;74.75
78431;BME280;67727;50.236;22.452;2023-05-06T04:09:48;100152.04;;;7.53;74.56
78431;BME280;67727;50.236;22.452;2023-05-06T04:12:15;100151.74;;;7.67;74.18
78431;BME280;67727;50.236;22.452;2023-05-06T04:14:41;100149.38;;;7.78;73.66
78431;BME280;67727;50.236;22.452;2023-05-06T04:17:08;100147.13;;;7.89;73.39
78431;BME280;67727;50.236;22.452;2023-05-06T04:19:35;100147.56;;;7.99;73.21
78431;BME280;67727;50.236;22.452;2023-05-06T04:22:02;100147.46;;;8.13;72.87
78431;BME280;67727;50.236;22.452;2023-05-06T04:24:28;100146.42;;;8.27;72.27
78431;BME280;67727;50.236;22.452;2023-05-06T04:26:56;100143.77;;;8.39;71.62
78431;BME280;67727;50.236;22.452;2023-05-06T04:29:23;100142.42;;;8.52;71.18
78431;BME280;67727;50.236;22.452;2023-05-06T04:31:51;100142.75;;;8.61;70.85
78431;BME280;67727;50.236;22.452;2023-05-06T04:34:19;100144.69;;;8.71;70.51
78431;BME280;67727;50.236;22.452;2023-05-06T04:36:46;100146.88;;;8.81;69.97
78431;BME280;67727;50.236;22.452;2023-05-06T04:39:13;100147.61;;;8.89;69.55
78431;BME280;67727;50.236;22.452;2023-05-06T04:41:41;100148.36;;;8.99;69.37
78431;BME280;67727;50.236;22.452;2023-05-06T04:44:10;100143.30;;;9.08;69.35
78431;BME280;67727;50.236;22.452;2023-05-06T04:46:36;100136.61;;;9.16;68.88
78431;BME280;67727;50.236;22.452;2023-05-06T04:49:03;100138.88;;;9.25;68.13
78431;BME280;67727;50.236;22.452;2023-05-06T04:51:30;100140.92;;;9.38;67.82
78431;BME280;67727;50.236;22.452;2023-05-06T04:53:57;100143.14;;;9.50;67.09
78431;BME280;67727;50.236;22.452;2023-05-06T04:56:24;100138.27;;;9.60;66.93
78431;BME280;67727;50.236;22.452;2023-05-06T04:58:51;100139.60;;;9.68;66.42
78431;BME280;67727;50.236;22.452;2023-05-06T05:01:18;100137.17;;;9.72;65.92
78431;BME280;67727;50.236;22.452;2023-05-06T05:03:45;100138.09;;;9.82;66.16
78431;BME280;67727;50.236;22.452;2023-05-06T05:06:11;100136.71;;;9.88;65.49
78431;BME280;67727;50.236;22.452;2023-05-06T05:08:39;100140.85;;;9.94;65.37
78431;BME280;67727;50.236;22.452;2023-05-06T05:11:06;100143.15;;;10.05;65.50
78431;BME280;67727;50.236;22.452;2023-05-06T05:13:33;100142.36;;;10.18;64.93
78431;BME280;67727;50.236;22.452;2023-05-06T05:16:00;100143.20;;;10.30;64.59
78431;BME280;67727;50.236;22.452;2023-05-06T05:18:27;100140.80;;;10.43;64.13
78431;BME280;67727;50.236;22.452;2023-05-06T05:20:57;100140.08;;;10.56;63.71
78431;BME280;67727;50.236;22.452;2023-05-06T05:23:23;100141.27;;;10.68;62.96
78431;BME280;67727;50.236;22.452;2023-05-06T05:25:50;100142.27;;;10.71;62.89
78431;BME280;67727;50.236;22.452;2023-05-06T05:28:17;100145.61;;;10.80;62.29
78431;BME280;67727;50.236;22.452;2023-05-06T05:30:44;100148.49;;;10.83;61.94
78431;BME280;67727;50.236;22.452;2023-05-06T05:33:11;100152.30;;;10.89;62.04
78431;BME280;67727;50.236;22.452;2023-05-06T05:35:37;100154.27;;;11.03;62.40
78431;BME280;67727;50.236;22.452;2023-05-06T05:38:04;100158.41;;;11.20;61.65
78431;BME280;67727;50.236;22.452;2023-05-06T05:40:31;100151.69;;;11.34;61.48
78431;BME280;67727;50.236;22.452;2023-05-06T05:42:58;100144.61;;;11.45;60.72
78431;BME280;67727;50.236;22.452;2023-05-06T05:45:25;100138.77;;;11.49;60.65
78431;BME280;67727;50.236;22.452;2023-05-06T05:47:51;100135.89;;;11.57;60.77
78431;BME280;67727;50.236;22.452;2023-05-06T05:50:20;100131.89;;;11.65;60.28
78431;BME280;67727;50.236;22.452;2023-05-06T05:52:46;100136.14;;;11.73;60.07
78431;BME280;67727;50.236;22.452;2023-05-06T05:55:13;100141.38;;;11.79;59.83
78431;BME280;67727;50.236;22.452;2023-05-06T05:57:40;100153.08;;;11.88;59.16
78431;BME280;67727;50.236;22.452;2023-05-06T06:00:08;100153.21;;;11.85;59.24
78431;BME280;67727;50.236;22.452;2023-05-06T06:02:35;100149.27;;;11.87;59.30
78431;BME280;67727;50.236;22.452;2023-05-06T06:05:02;100138.75;;;11.96;59.73
78431;BME280;67727;50.236;22.452;2023-05-06T06:07:29;100135.84;;;12.15;59.59
78431;BME280;67727;50.236;22.452;2023-05-06T06:09:56;100134.90;;;12.37;59.14
78431;BME280;67727;50.236;22.452;2023-05-06T06:12:23;100133.11;;;12.51;58.29
78431;BME280;67727;50.236;22.452;2023-05-06T06:14:49;100130.70;;;12.65;58.39
78431;BME280;67727;50.236;22.452;2023-05-06T06:17:16;100133.20;;;12.68;58.08
78431;BME280;67727;50.236;22.452;2023-05-06T06:19:44;100129.98;;;12.68;58.13
78431;BME280;67727;50.236;22.452;2023-05-06T06:22:12;100133.39;;;12.72;57.94
78431;BME280;67727;50.236;22.452;2023-05-06T06:24:39;100134.77;;;12.80;57.35
78431;BME280;67727;50.236;22.452;2023-05-06T06:27:06;100127.54;;;12.91;57.28
78431;BME280;67727;50.236;22.452;2023-05-06T06:29:33;100126.69;;;12.92;57.03
78431;BME280;67727;50.236;22.452;2023-05-06T06:32:02;100128.77;;;12.98;57.13
78431;BME280;67727;50.236;22.452;2023-05-06T06:34:29;100136.11;;;13.11;56.87
78431;BME280;67727;50.236;22.452;2023-05-06T06:36:56;100137.14;;;13.19;56.90
78431;BME280;67727;50.236;22.452;2023-05-06T06:39:22;100144.33;;;13.30;56.84
78431;BME280;67727;50.236;22.452;2023-05-06T06:41:49;100142.20;;;13.39;56.35
78431;BME280;67727;50.236;22.452;2023-05-06T06:44:16;100141.15;;;13.55;55.97
78431;BME280;67727;50.236;22.452;2023-05-06T06:46:43;100141.70;;;13.72;55.90
78431;BME280;67727;50.236;22.452;2023-05-06T06:49:10;100137.45;;;13.97;55.17
78431;BME280;67727;50.236;22.452;2023-05-06T06:51:37;100135.95;;;14.18;54.74
78431;BME280;67727;50.236;22.452;2023-05-06T06:54:04;100132.01;;;14.24;53.40
78431;BME280;67727;50.236;22.452;2023-05-06T06:56:30;100133.88;;;14.19;53.06
78431;BME280;67727;50.236;22.452;2023-05-06T06:58:57;100124.74;;;14.17;53.46
78431;BME280;67727;50.236;22.452;2023-05-06T07:01:24;100119.67;;;14.21;52.96
78431;BME280;67727;50.236;22.452;2023-05-06T07:03:51;100121.85;;;14.19;53.38
78431;BME280;67727;50.236;22.452;2023-05-06T07:06:18;100116.77;;;14.21;53.03
78431;BME280;67727;50.236;22.452;2023-05-06T07:08:44;100121.52;;;14.21;53.14
78431;BME280;67727;50.236;22.452;2023-05-06T07:11:11;100115.91;;;14.19;52.32
78431;BME280;67727;50.236;22.452;2023-05-06T07:13:39;100114.77;;;14.12;51.98
78431;BME280;67727;50.236;22.452;2023-05-06T07:16:06;100114.97;;;14.11;53.06
78431;BME280;67727;50.236;22.452;2023-05-06T07:18:33;100114.48;;;14.16;53.75
78431;BME280;67727;50.236;22.452;2023-05-06T07:21:00;100105.61;;;14.28;52.10
78431;BME280;67727;50.236;22.452;2023-05-06T07:23:27;100100.45;;;14.40;51.84
78431;BME280;67727;50.236;22.452;2023-05-06T07:25:54;100093.54;;;14.59;52.28
78431;BME280;67727;50.236;22.452;2023-05-06T07:28:20;100097.88;;;14.78;51.13
78431;BME280;67727;50.236;22.452;2023-05-06T07:30:47;100108.00;;;14.87;50.41
78431;BME280;67727;50.236;22.452;2023-05-06T07:33:16;100110.55;;;14.98;50.92
78431;BME280;67727;50.236;22.452;2023-05-06T07:35:43;100103.38;;;15.15;50.52
78431;BME280;67727;50.236;22.452;2023-05-06T07:38:10;100101.13;;;15.28;49.21
78431;BME280;67727;50.236;22.452;2023-05-06T07:40:37;100101.80;;;15.39;49.66
78431;BME280;67727;50.236;22.452;2023-05-06T07:43:03;100102.89;;;15.60;50.22
78431;BME280;67727;50.236;22.452;2023-05-06T07:45:30;100103.50;;;15.72;49.08
78431;BME280;67727;50.236;22.452;2023-05-06T07:47:57;100103.48;;;15.72;49.04
78431;BME280;67727;50.236;22.452;2023-05-06T07:50:24;100101.67;;;15.77;49.31
78431;BME280;67727;50.236;22.452;2023-05-06T07:52:51;100102.77;;;15.86;48.80
78431;BME280;67727;50.236;22.452;2023-05-06T07:55:18;100100.29;;;15.81;47.93
78431;BME280;67727;50.236;22.452;2023-05-06T07:57:44;100097.77;;;15.71;48.55
78431;BME280;67727;50.236;22.452;2023-05-06T08:00:11;100094.58;;;15.64;48.29
78431;BME280;67727;50.236;22.452;2023-05-06T08:02:38;100094.77;;;15.57;48.86
78431;BME280;67727;50.236;22.452;2023-05-06T08:05:09;100095.52;;;15.52;48.83
78431;BME280;67727;50.236;22.452;2023-05-06T08:07:36;100096.48;;;15.46;48.94
78431;BME280;67727;50.236;22.452;2023-05-06T08:10:03;100093.88;;;15.41;49.52
78431;BME280;67727;50.236;22.452;2023-05-06T08:12:31;100092.47;;;15.38;49.30
78431;BME280;67727;50.236;22.452;2023-05-06T08:14:57;100093.02;;;15.34;49.37
78431;BME280;67727;50.236;22.452;2023-05-06T08:17:24;100086.17;;;15.29;50.39
78431;BME280;67727;50.236;22.452;2023-05-06T08:19:51;100092.24;;;15.35;50.14
78431;BME280;67727;50.236;22.452;2023-05-06T08:22:18;100091.48;;;15.39;49.82
78431;BME280;67727;50.236;22.452;2023-05-06T08:24:45;100086.48;;;15.42;49.86
78431;BME280;67727;50.236;22.452;2023-05-06T08:27:11;100091.07;;;15.46;49.93
78431;BME280;67727;50.236;22.452;2023-05-06T08:29:38;100093.55;;;15.48;49.96
78431;BME280;67727;50.236;22.452;2023-05-06T08:32:05;100095.14;;;15.50;49.41
78431;BME280;67727;50.236;22.452;2023-05-06T08:34:32;100093.45;;;15.56;49.74
78431;BME280;67727;50.236;22.452;2023-05-06T08:37:00;100088.05;;;15.66;49.80
78431;BME280;67727;50.236;22.452;2023-05-06T08:39:27;100088.83;;;15.88;49.63
78431;BME280;67727;50.236;22.452;2023-05-06T08:41:55;100083.70;;;16.15;49.87
78431;BME280;67727;50.236;22.452;2023-05-06T08:44:24;100090.50;;;16.51;48.95
78431;BME280;67727;50.236;22.452;2023-05-06T08:46:51;100085.13;;;16.68;48.18
78431;BME280;67727;50.236;22.452;2023-05-06T08:49:17;100088.27;;;16.77;47.62
78431;BME280;67727;50.236;22.452;2023-05-06T08:51:44;100088.10;;;16.78;47.08
78431;BME280;67727;50.236;22.452;2023-05-06T08:54:12;100082.04;;;16.82;47.58
78431;BME280;67727;50.236;22.452;2023-05-06T08:56:43;100083.61;;;16.80;46.95
78431;BME280;67727;50.236;22.452;2023-05-06T08:59:12;100083.30;;;16.69;47.52
78431;BME280;67727;50.236;22.452;2023-05-06T09:01:39;100081.81;;;16.65;47.76
78431;BME280;67727;50.236;22.452;2023-05-06T09:04:06;100075.60;;;16.59;47.90
78431;BME280;67727;50.236;22.452;2023-05-06T09:06:33;100075.05;;;16.64;48.12
78431;BME280;67727;50.236;22.452;2023-05-06T09:09:00;100077.13;;;16.82;48.27
78431;BME280;67727;50.236;22.452;2023-05-06T09:11:28;100076.23;;;17.02;47.41
78431;BME280;67727;50.236;22.452;2023-05-06T09:14:15;100063.02;;;17.17;47.63
78431;BME280;67727;50.236;22.452;2023-05-06T09:16:44;100066.44;;;17.41;47.95
78431;BME280;67727;50.236;22.452;2023-05-06T09:19:12;100061.30;;;17.59;47.07
78431;BME280;67727;50.236;22.452;2023-05-06T09:21:42;100056.92;;;17.61;45.79
78431;BME280;67727;50.236;22.452;2023-05-06T09:24:10;100052.52;;;17.49;46.41
78431;BME280;67727;50.236;22.452;2023-05-06T09:26:39;100043.48;;;17.52;46.60
78431;BME280;67727;50.236;22.452;2023-05-06T09:29:07;100044.30;;;17.61;46.86
78431;BME280;67727;50.236;22.452;2023-05-06T09:31:38;100043.16;;;17.73;47.02
78431;BME280;67727;50.236;22.452;2023-05-06T09:34:06;100042.70;;;17.81;46.83
78431;BME280;67727;50.236;22.452;2023-05-06T09:36:33;100036.01;;;17.83;46.26
78431;BME280;67727;50.236;22.452;2023-05-06T09:38:59;100035.14;;;17.72;45.56
78431;BME280;67727;50.236;22.452;2023-05-06T09:41:26;100032.11;;;17.64;46.14
78431;BME280;67727;50.236;22.452;2023-05-06T09:43:55;100034.81;;;17.60;46.46
78431;BME280;67727;50.236;22.452;2023-05-06T09:46:24;100031.42;;;17.60;46.43
78431;BME280;67727;50.236;22.452;2023-05-06T09:48:52;100028.22;;;17.60;46.24
78431;BME280;67727;50.236;22.452;2023-05-06T09:51:19;100029.14;;;17.59;46.01
78431;BME280;67727;50.236;22.452;2023-05-06T09:53:47;100029.64;;;17.49;45.44
78431;BME280;67727;50.236;22.452;2023-05-06T09:56:14;100028.36;;;17.39;46.30
78431;BME280;67727;50.236;22.452;2023-05-06T09:58:42;100022.02;;;17.34;46.59
78431;BME280;67727;50.236;22.452;2023-05-06T10:01:10;100019.36;;;17.30;46.81
78431;BME280;67727;50.236;22.452;2023-05-06T10:03:39;100014.61;;;17.26;46.71
78431;BME280;67727;50.236;22.452;2023-05-06T10:06:08;100008.55;;;17.26;47.37
78431;BME280;67727;50.236;22.452;2023-05-06T10:08:37;100011.33;;;17.30;47.21
78431;BME280;67727;50.236;22.452;2023-05-06T10:11:06;100008.70;;;17.37;46.93
78431;BME280;67727;50.236;22.452;2023-05-06T10:13:34;100009.01;;;17.43;46.61
78431;BME280;67727;50.236;22.452;2023-05-06T10:16:03;100003.19;;;17.45;46.81
78431;BME280;67727;50.236;22.452;2023-05-06T10:18:31;99994.27;;;17.46;46.69
78431;BME280;67727;50.236;22.452;2023-05-06T10:21:01;99992.98;;;17.50;46.39
78431;BME280;67727;50.236;22.452;2023-05-06T10:23:42;99984.98;;;17.56;46.69
78431;BME280;67727;50.236;22.452;2023-05-06T10:26:15;99977.55;;;17.66;46.67
78431;BME280;67727;50.236;22.452;2023-05-06T10:28:45;99973.71;;;17.75;46.16
78431;BME280;67727;50.236;22.452;2023-05-06T10:31:15;99973.98;;;17.70;46.14
78431;BME280;67727;50.236;22.452;2023-05-06T10:33:45;99972.94;;;17.70;46.56
78431;BME280;67727;50.236;22.452;2023-05-06T10:38:53;99965.42;;;17.76;46.51
78431;BME280;67727;50.236;22.452;2023-05-06T10:41:23;99962.33;;;17.78;46.06
78431;BME280;67727;50.236;22.452;2023-05-06T10:43:51;99961.19;;;17.75;46.34
78431;BME280;67727;50.236;22.452;2023-05-06T10:46:23;99958.27;;;17.73;46.34
78431;BME280;67727;50.236;22.452;2023-05-06T10:51:32;99941.84;;;17.68;46.44
78431;BME280;67727;50.236;22.452;2023-05-06T10:54:01;99936.23;;;17.67;46.64
78431;BME280;67727;50.236;22.452;2023-05-06T10:56:38;99934.08;;;17.65;46.50
78431;BME280;67727;50.236;22.452;2023-05-06T10:59:09;99936.63;;;17.66;47.02
78431;BME280;67727;50.236;22.452;2023-05-06T11:01:40;99928.04;;;17.61;47.06
78431;BME280;67727;50.236;22.452;2023-05-06T11:04:10;99923.77;;;17.64;47.21
78431;BME280;67727;50.236;22.452;2023-05-06T11:06:49;99924.67;;;17.69;46.93
78431;BME280;67727;50.236;22.452;2023-05-06T11:09:18;99923.64;;;17.76;47.06
78431;BME280;67727;50.236;22.452;2023-05-06T11:12:01;99919.02;;;17.77;46.96
78431;BME280;67727;50.236;22.452;2023-05-06T11:14:30;99917.48;;;17.77;46.20
78431;BME280;67727;50.236;22.452;2023-05-06T11:16:58;99915.10;;;17.74;46.51
78431;BME280;67727;50.236;22.452;2023-05-06T11:19:29;99911.77;;;17.71;46.43
78431;BME280;67727;50.236;22.452;2023-05-06T11:21:58;99906.14;;;17.71;46.68
78431;BME280;67727;50.236;22.452;2023-05-06T11:24:29;99901.30;;;17.69;46.65
78431;BME280;67727;50.236;22.452;2023-05-06T11:26:57;99896.71;;;17.74;47.11
78431;BME280;67727;50.236;22.452;2023-05-06T11:29:25;99897.08;;;17.85;47.11
78431;BME280;67727;50.236;22.452;2023-05-06T11:31:52;99894.86;;;17.89;46.31
78431;BME280;67727;50.236;22.452;2023-05-06T11:34:21;99888.63;;;17.89;46.49
78431;BME280;67727;50.236;22.452;2023-05-06T11:37:05;99883.30;;;17.90;47.10
78431;BME280;67727;50.236;22.452;2023-05-06T11:39:33;99876.97;;;17.92;46.87
78431;BME280;67727;50.236;22.452;2023-05-06T11:42:03;99876.00;;;17.95;46.79
78431;BME280;67727;50.236;22.452;2023-05-06T11:44:33;99874.57;;;17.92;46.43
78431;BME280;67727;50.236;22.452;2023-05-06T11:47:02;99868.90;;;17.89;46.67
78431;BME280;67727;50.236;22.452;2023-05-06T11:49:54;99862.14;;;17.88;46.40
78431;BME280;67727;50.236;22.452;2023-05-06T11:52:21;99860.45;;;17.79;46.80
78431;BME280;67727;50.236;22.452;2023-05-06T11:54:50;99858.64;;;17.73;47.18
78431;BME280;67727;50.236;22.452;2023-05-06T11:57:18;99851.23;;;17.66;47.32
78431;BME280;67727;50.236;22.452;2023-05-06T11:59:46;99853.67;;;17.62;47.43
78431;BME280;67727;50.236;22.452;2023-05-06T12:02:13;99848.73;;;17.54;47.55
78431;BME280;67727;50.236;22.452;2023-05-06T12:04:45;99849.74;;;17.46;47.24
78431;BME280;67727;50.236;22.452;2023-05-06T12:07:14;99851.55;;;17.37;47.22
78431;BME280;67727;50.236;22.452;2023-05-06T12:09:43;99841.98;;;17.33;47.76
78431;BME280;67727;50.236;22.452;2023-05-06T12:12:14;99836.39;;;17.31;48.08
78431;BME280;67727;50.236;22.452;2023-05-06T12:14:42;99824.88;;;17.33;48.63
78431;BME280;67727;50.236;22.452;2023-05-06T12:17:10;99819.20;;;17.35;48.36
78431;BME280;67727;50.236;22.452;2023-05-06T12:19:38;99817.79;;;17.36;48.18
78431;BME280;67727;50.236;22.452;2023-05-06T12:22:21;99810.87;;;17.37;48.32
78431;BME280;67727;50.236;22.452;2023-05-06T12:24:49;99811.90;;;17.41;48.34
78431;BME280;67727;50.236;22.452;2023-05-06T12:27:33;99800.38;;;17.44;48.22
78431;BME280;67727;50.236;22.452;2023-05-06T12:30:00;99795.50;;;17.49;48.45
78431;BME280;67727;50.236;22.452;2023-05-06T12:32:30;99794.05;;;17.56;48.39
78431;BME280;67727;50.236;22.452;2023-05-06T12:34:56;99793.93;;;17.65;48.04
78431;BME280;67727;50.236;22.452;2023-05-06T12:37:28;99793.05;;;17.74;47.93
78431;BME280;67727;50.236;22.452;2023-05-06T12:39:56;99789.94;;;17.81;47.41
78431;BME280;67727;50.236;22.452;2023-05-06T12:42:23;99792.74;;;17.85;47.19
78431;BME280;67727;50.236;22.452;2023-05-06T12:44:50;99783.67;;;17.89;47.17
78431;BME280;67727;50.236;22.452;2023-05-06T12:49:56;99772.33;;;17.96;47.15
78431;BME280;67727;50.236;22.452;2023-05-06T12:52:26;99769.13;;;18.02;47.13
78431;BME280;67727;50.236;22.452;2023-05-06T12:54:53;99766.66;;;18.08;47.43
78431;BME280;67727;50.236;22.452;2023-05-06T12:57:20;99764.73;;;18.14;47.53
78431;BME280;67727;50.236;22.452;2023-05-06T12:59:48;99763.15;;;18.20;47.63
78431;BME280;67727;50.236;22.452;2023-05-06T13:02:15;99758.30;;;18.25;47.26
78431;BME280;67727;50.236;22.452;2023-05-06T13:04:42;99756.44;;;18.28;47.24
78431;BME280;67727;50.236;22.452;2023-05-06T13:07:10;99751.27;;;18.30;47.07